sensor_id;sensor_type;location;lat;lon;timestamp;temperature;humidity
37408;DHT22;24866;50.248;8.252;2023-05-28T00:01:48;11.80;99.90
37408;DHT22;24866;50.248;8.252;2023-05-28T00:04:18;11.80;1.00
37408;DHT22;24866;50.248;8.252;2023-05-28T00:06:49;11.80;99.90
37408;DHT22;24866;50.248;8.252;2023-05-28T00:09:21;11.50;99.90
37408;DHT22;24866;50.248;8.252;2023-05-28T00:11:51;11.60;1.00
37408;DHT22;24866;50.248;8.252;2023-05-28T00:14:21;11.80;1.00
37408;DHT22;24866;50.248;8.252;2023-05-28T00:16:52;11.40;1.00
37408;DHT22;24866;50.248;8.252;2023-05-28T00:19:22;11.40;99.90
37408;DHT22;24866;50.248;8.252;2023-05-28T00:21:52;11.70;1.00
37408;DHT22;24866;50.248;8.252;2023-05-28T00:24:22;11.70;99.90
37408;DHT22;24866;50.248;8.252;2023-05-28T00:26:52;11.30;84.20
37408;DHT22;24866;50.248;8.252;2023-05-28T00:29:22;11.20;1.00
37408;DHT22;24866;50.248;8.252;2023-05-28T00:31:54;11.20;1.00
37408;DHT22;24866;50.248;8.252;2023-05-28T00:34:25;11.00;1.00
37408;DHT22;24866;50.248;8.252;2023-05-28T00:36:55;10.90;1.00
37408;DHT22;24866;50.248;8.252;2023-05-28T00:39:25;10.80;1.00
37408;DHT22;24866;50.248;8.252;2023-05-28T00:42:01;11.00;1.00
37408;DHT22;24866;50.248;8.252;2023-05-28T00:44:31;11.10;1.00
37408;DHT22;24866;50.248;8.252;2023-05-28T00:47:03;11.00;1.00
37408;DHT22;24866;50.248;8.252;2023-05-28T00:49:33;10.80;1.00
37408;DHT22;24866;50.248;8.252;2023-05-28T00:52:03;10.70;1.00
37408;DHT22;24866;50.248;8.252;2023-05-28T00:54:34;10.70;1.00
37408;DHT22;24866;50.248;8.252;2023-05-28T00:57:04;10.70;1.00
37408;DHT22;24866;50.248;8.252;2023-05-28T00:59:34;10.60;1.00
37408;DHT22;24866;50.248;8.252;2023-05-28T01:02:06;10.30;1.00
37408;DHT22;24866;50.248;8.252;2023-05-28T01:04:36;10.60;99.90
37408;DHT22;24866;50.248;8.252;2023-05-28T01:07:06;10.70;1.00
37408;DHT22;24866;50.248;8.252;2023-05-28T01:09:36;11.00;1.00
37408;DHT22;24866;50.248;8.252;2023-05-28T01:12:08;10.60;1.00
37408;DHT22;24866;50.248;8.252;2023-05-28T01:14:38;10.60;1.00
37408;DHT22;24866;50.248;8.252;2023-05-28T01:17:10;10.70;1.00
37408;DHT22;24866;50.248;8.252;2023-05-28T01:19:40;10.80;1.00
37408;DHT22;24866;50.248;8.252;2023-05-28T01:22:11;10.80;1.00
37408;DHT22;24866;50.248;8.252;2023-05-28T01:24:45;10.50;1.00
37408;DHT22;24866;50.248;8.252;2023-05-28T01:27:16;10.40;1.00
37408;DHT22;24866;50.248;8.252;2023-05-28T01:29:46;10.30;1.00
37408;DHT22;24866;50.248;8.252;2023-05-28T01:32:16;10.50;1.00
37408;DHT22;24866;50.248;8.252;2023-05-28T01:34:49;10.10;1.00
37408;DHT22;24866;50.248;8.252;2023-05-28T01:37:19;9.90;1.00
37408;DHT22;24866;50.248;8.252;2023-05-28T01:39:52;10.10;1.00
37408;DHT22;24866;50.248;8.252;2023-05-28T01:42:22;10.20;1.00
37408;DHT22;24866;50.248;8.252;2023-05-28T01:44:53;10.20;1.00
37408;DHT22;24866;50.248;8.252;2023-05-28T01:47:24;10.10;1.00
37408;DHT22;24866;50.248;8.252;2023-05-28T01:49:55;10.00;1.00
37408;DHT22;24866;50.248;8.252;2023-05-28T01:52:25;10.20;1.00
37408;DHT22;24866;50.248;8.252;2023-05-28T01:54:56;10.20;1.00
37408;DHT22;24866;50.248;8.252;2023-05-28T01:57:26;9.90;1.00
37408;DHT22;24866;50.248;8.252;2023-05-28T01:59:56;9.80;1.00
37408;DHT22;24866;50.248;8.252;2023-05-28T02:02:26;9.80;1.00
37408;DHT22;24866;50.248;8.252;2023-05-28T02:04:56;9.90;1.00
37408;DHT22;24866;50.248;8.252;2023-05-28T02:07:26;9.90;1.00
37408;DHT22;24866;50.248;8.252;2023-05-28T02:09:57;9.90;1.00
37408;DHT22;24866;50.248;8.252;2023-05-28T02:12:27;9.90;20.50
37408;DHT22;24866;50.248;8.252;2023-05-28T02:14:58;9.90;1.00
37408;DHT22;24866;50.248;8.252;2023-05-28T02:17:27;9.70;1.00
37408;DHT22;24866;50.248;8.252;2023-05-28T02:19:57;9.60;1.00
37408;DHT22;24866;50.248;8.252;2023-05-28T02:22:27;9.70;81.20
37408;DHT22;24866;50.248;8.252;2023-05-28T02:24:58;9.60;98.50
37408;DHT22;24866;50.248;8.252;2023-05-28T02:27:28;9.50;99.90
37408;DHT22;24866;50.248;8.252;2023-05-28T02:30:00;9.30;99.90
37408;DHT22;24866;50.248;8.252;2023-05-28T02:32:30;9.60;99.90
37408;DHT22;24866;50.248;8.252;2023-05-28T02:35:00;9.50;99.90
37408;DHT22;24866;50.248;8.252;2023-05-28T02:37:30;9.30;99.90
37408;DHT22;24866;50.248;8.252;2023-05-28T02:40:01;9.20;99.90
37408;DHT22;24866;50.248;8.252;2023-05-28T02:42:32;9.30;99.90
37408;DHT22;24866;50.248;8.252;2023-05-28T02:45:02;9.40;99.90
37408;DHT22;24866;50.248;8.252;2023-05-28T02:47:32;9.20;99.90
37408;DHT22;24866;50.248;8.252;2023-05-28T02:50:03;9.20;99.90
37408;DHT22;24866;50.248;8.252;2023-05-28T02:52:33;9.30;99.90
37408;DHT22;24866;50.248;8.252;2023-05-28T02:55:05;9.50;99.90
37408;DHT22;24866;50.248;8.252;2023-05-28T02:57:36;9.60;99.90
37408;DHT22;24866;50.248;8.252;2023-05-28T03:00:10;9.40;1.00
37408;DHT22;24866;50.248;8.252;2023-05-28T03:02:40;9.20;20.60
37408;DHT22;24866;50.248;8.252;2023-05-28T03:05:10;9.10;99.90
37408;DHT22;24866;50.248;8.252;2023-05-28T03:07:40;9.00;99.90
37408;DHT22;24866;50.248;8.252;2023-05-28T03:10:16;9.00;99.90
37408;DHT22;24866;50.248;8.252;2023-05-28T03:12:46;9.20;99.90
37408;DHT22;24866;50.248;8.252;2023-05-28T03:15:15;9.30;99.90
37408;DHT22;24866;50.248;8.252;2023-05-28T03:17:46;9.20;67.50
37408;DHT22;24866;50.248;8.252;2023-05-28T03:20:15;9.20;62.00
37408;DHT22;24866;50.248;8.252;2023-05-28T03:22:46;9.00;98.10
37408;DHT22;24866;50.248;8.252;2023-05-28T03:25:18;8.90;99.90
37408;DHT22;24866;50.248;8.252;2023-05-28T03:27:47;8.90;99.90
37408;DHT22;24866;50.248;8.252;2023-05-28T03:30:17;9.00;99.90
37408;DHT22;24866;50.248;8.252;2023-05-28T03:32:48;9.10;99.90
37408;DHT22;24866;50.248;8.252;2023-05-28T03:35:18;9.00;99.90
37408;DHT22;24866;50.248;8.252;2023-05-28T03:37:48;8.90;99.90
37408;DHT22;24866;50.248;8.252;2023-05-28T03:40:19;8.90;99.90
37408;DHT22;24866;50.248;8.252;2023-05-28T03:42:49;8.70;99.90
37408;DHT22;24866;50.248;8.252;2023-05-28T03:45:19;8.70;99.90
37408;DHT22;24866;50.248;8.252;2023-05-28T03:47:49;8.70;99.90
37408;DHT22;24866;50.248;8.252;2023-05-28T03:50:19;8.60;99.90
37408;DHT22;24866;50.248;8.252;2023-05-28T03:52:49;8.40;99.90
37408;DHT22;24866;50.248;8.252;2023-05-28T03:55:20;8.50;99.90
37408;DHT22;24866;50.248;8.252;2023-05-28T03:57:50;8.80;99.90
37408;DHT22;24866;50.248;8.252;2023-05-28T04:00:20;9.00;99.90
37408;DHT22;24866;50.248;8.252;2023-05-28T04:02:50;8.90;99.90
37408;DHT22;24866;50.248;8.252;2023-05-28T04:05:19;8.70;99.90
37408;DHT22;24866;50.248;8.252;2023-05-28T04:07:49;8.60;99.90
37408;DHT22;24866;50.248;8.252;2023-05-28T04:10:20;8.60;99.90
37408;DHT22;24866;50.248;8.252;2023-05-28T04:12:50;8.80;99.90
37408;DHT22;24866;50.248;8.252;2023-05-28T04:15:20;8.90;99.90
37408;DHT22;24866;50.248;8.252;2023-05-28T04:17:50;9.00;99.90
37408;DHT22;24866;50.248;8.252;2023-05-28T04:20:20;8.80;99.90
37408;DHT22;24866;50.248;8.252;2023-05-28T04:22:50;8.90;99.90
37408;DHT22;24866;50.248;8.252;2023-05-28T04:25:22;8.80;99.90
37408;DHT22;24866;50.248;8.252;2023-05-28T04:27:53;8.80;99.90
37408;DHT22;24866;50.248;8.252;2023-05-28T04:30:22;8.60;99.90
37408;DHT22;24866;50.248;8.252;2023-05-28T04:32:52;8.60;99.90
37408;DHT22;24866;50.248;8.252;2023-05-28T04:35:22;8.70;99.90
37408;DHT22;24866;50.248;8.252;2023-05-28T04:37:52;8.70;99.90
37408;DHT22;24866;50.248;8.252;2023-05-28T04:40:23;8.70;99.90
37408;DHT22;24866;50.248;8.252;2023-05-28T04:42:54;8.70;99.90
37408;DHT22;24866;50.248;8.252;2023-05-28T04:45:24;8.80;99.90
37408;DHT22;24866;50.248;8.252;2023-05-28T04:47:55;8.90;99.90
37408;DHT22;24866;50.248;8.252;2023-05-28T04:50:25;9.10;99.90
37408;DHT22;24866;50.248;8.252;2023-05-28T04:52:54;9.20;99.90
37408;DHT22;24866;50.248;8.252;2023-05-28T04:55:26;9.40;99.90
37408;DHT22;24866;50.248;8.252;2023-05-28T04:57:56;9.50;99.90
37408;DHT22;24866;50.248;8.252;2023-05-28T05:00:25;9.40;99.90
37408;DHT22;24866;50.248;8.252;2023-05-28T05:02:56;9.40;99.90
37408;DHT22;24866;50.248;8.252;2023-05-28T05:05:26;9.40;99.90
37408;DHT22;24866;50.248;8.252;2023-05-28T05:07:56;9.60;99.90
37408;DHT22;24866;50.248;8.252;2023-05-28T05:10:28;9.60;99.90
37408;DHT22;24866;50.248;8.252;2023-05-28T05:12:57;9.70;99.90
37408;DHT22;24866;50.248;8.252;2023-05-28T05:15:28;9.80;99.90
37408;DHT22;24866;50.248;8.252;2023-05-28T05:17:59;9.90;99.90
37408;DHT22;24866;50.248;8.252;2023-05-28T05:20:29;9.90;99.90
37408;DHT22;24866;50.248;8.252;2023-05-28T05:22:59;9.90;99.90
37408;DHT22;24866;50.248;8.252;2023-05-28T05:25:30;9.90;99.90
37408;DHT22;24866;50.248;8.252;2023-05-28T05:28:00;10.00;99.90
37408;DHT22;24866;50.248;8.252;2023-05-28T05:30:30;10.10;99.90
37408;DHT22;24866;50.248;8.252;2023-05-28T05:32:59;10.30;99.90
37408;DHT22;24866;50.248;8.252;2023-05-28T05:35:29;10.30;99.90
37408;DHT22;24866;50.248;8.252;2023-05-28T05:37:59;10.50;99.90
37408;DHT22;24866;50.248;8.252;2023-05-28T05:40:31;10.40;99.90
37408;DHT22;24866;50.248;8.252;2023-05-28T05:43:01;10.50;99.90
37408;DHT22;24866;50.248;8.252;2023-05-28T05:45:31;10.60;99.90
37408;DHT22;24866;50.248;8.252;2023-05-28T05:48:01;10.70;99.90
37408;DHT22;24866;50.248;8.252;2023-05-28T05:50:30;10.70;99.90
37408;DHT22;24866;50.248;8.252;2023-05-28T05:53:00;10.70;99.90
37408;DHT22;24866;50.248;8.252;2023-05-28T05:55:33;10.60;99.90
37408;DHT22;24866;50.248;8.252;2023-05-28T05:58:02;10.60;99.90
37408;DHT22;24866;50.248;8.252;2023-05-28T06:00:32;10.70;99.90
37408;DHT22;24866;50.248;8.252;2023-05-28T06:03:02;10.90;99.90
37408;DHT22;24866;50.248;8.252;2023-05-28T06:05:32;11.00;99.90
37408;DHT22;24866;50.248;8.252;2023-05-28T06:08:02;11.00;99.90
37408;DHT22;24866;50.248;8.252;2023-05-28T06:10:33;11.10;99.90
37408;DHT22;24866;50.248;8.252;2023-05-28T06:13:03;11.20;99.90
37408;DHT22;24866;50.248;8.252;2023-05-28T06:15:33;11.40;99.90
37408;DHT22;24866;50.248;8.252;2023-05-28T06:18:05;11.50;99.90
37408;DHT22;24866;50.248;8.252;2023-05-28T06:20:37;11.70;99.90
37408;DHT22;24866;50.248;8.252;2023-05-28T06:23:07;11.90;99.90
37408;DHT22;24866;50.248;8.252;2023-05-28T06:25:39;11.90;99.90
37408;DHT22;24866;50.248;8.252;2023-05-28T06:28:09;12.10;99.90
37408;DHT22;24866;50.248;8.252;2023-05-28T06:30:39;12.10;99.90
37408;DHT22;24866;50.248;8.252;2023-05-28T06:33:09;12.40;99.90
37408;DHT22;24866;50.248;8.252;2023-05-28T06:35:39;12.50;99.90
37408;DHT22;24866;50.248;8.252;2023-05-28T06:38:09;12.60;99.90
37408;DHT22;24866;50.248;8.252;2023-05-28T06:40:40;12.70;99.90
37408;DHT22;24866;50.248;8.252;2023-05-28T06:43:10;12.90;99.90
37408;DHT22;24866;50.248;8.252;2023-05-28T06:45:40;13.00;99.90
37408;DHT22;24866;50.248;8.252;2023-05-28T06:48:10;13.20;99.90
37408;DHT22;24866;50.248;8.252;2023-05-28T06:50:40;13.20;99.90
37408;DHT22;24866;50.248;8.252;2023-05-28T06:53:10;13.30;99.90
37408;DHT22;24866;50.248;8.252;2023-05-28T06:55:41;13.50;99.90
37408;DHT22;24866;50.248;8.252;2023-05-28T06:58:11;13.50;99.90
37408;DHT22;24866;50.248;8.252;2023-05-28T07:00:41;13.60;99.90
37408;DHT22;24866;50.248;8.252;2023-05-28T07:03:11;13.80;99.90
37408;DHT22;24866;50.248;8.252;2023-05-28T07:05:41;13.90;99.90
37408;DHT22;24866;50.248;8.252;2023-05-28T07:08:11;14.10;99.90
37408;DHT22;24866;50.248;8.252;2023-05-28T07:10:45;14.10;99.90
37408;DHT22;24866;50.248;8.252;2023-05-28T07:13:15;14.50;99.90
37408;DHT22;24866;50.248;8.252;2023-05-28T07:15:45;14.50;99.90
37408;DHT22;24866;50.248;8.252;2023-05-28T07:18:15;14.50;99.90
37408;DHT22;24866;50.248;8.252;2023-05-28T07:20:54;14.50;99.90
37408;DHT22;24866;50.248;8.252;2023-05-28T07:23:24;14.70;99.90
37408;DHT22;24866;50.248;8.252;2023-05-28T07:25:55;15.20;99.90
37408;DHT22;24866;50.248;8.252;2023-05-28T07:28:25;15.40;99.90
37408;DHT22;24866;50.248;8.252;2023-05-28T07:30:55;15.40;99.90
37408;DHT22;24866;50.248;8.252;2023-05-28T07:33:25;15.70;99.90
37408;DHT22;24866;50.248;8.252;2023-05-28T07:35:55;15.90;99.90
37408;DHT22;24866;50.248;8.252;2023-05-28T07:38:25;16.10;99.90
37408;DHT22;24866;50.248;8.252;2023-05-28T07:40:56;16.20;99.90
37408;DHT22;24866;50.248;8.252;2023-05-28T07:43:26;15.80;99.90
37408;DHT22;24866;50.248;8.252;2023-05-28T07:45:56;15.90;99.90
37408;DHT22;24866;50.248;8.252;2023-05-28T07:48:25;16.00;99.90
37408;DHT22;24866;50.248;8.252;2023-05-28T07:50:55;16.20;99.90
37408;DHT22;24866;50.248;8.252;2023-05-28T07:53:25;16.40;99.90
37408;DHT22;24866;50.248;8.252;2023-05-28T07:55:56;16.50;99.90
37408;DHT22;24866;50.248;8.252;2023-05-28T07:58:26;16.80;99.90
37408;DHT22;24866;50.248;8.252;2023-05-28T08:00:56;16.70;99.90
37408;DHT22;24866;50.248;8.252;2023-05-28T08:03:26;16.80;99.90
37408;DHT22;24866;50.248;8.252;2023-05-28T08:05:56;17.10;99.90
37408;DHT22;24866;50.248;8.252;2023-05-28T08:08:27;16.90;99.90
37408;DHT22;24866;50.248;8.252;2023-05-28T08:10:58;17.00;99.90
37408;DHT22;24866;50.248;8.252;2023-05-28T08:13:29;17.30;99.90
37408;DHT22;24866;50.248;8.252;2023-05-28T08:15:59;17.50;99.90
37408;DHT22;24866;50.248;8.252;2023-05-28T08:18:29;17.40;99.90
37408;DHT22;24866;50.248;8.252;2023-05-28T08:20:59;17.50;99.90
37408;DHT22;24866;50.248;8.252;2023-05-28T08:23:30;17.50;99.90
37408;DHT22;24866;50.248;8.252;2023-05-28T08:26:04;17.50;99.90
37408;DHT22;24866;50.248;8.252;2023-05-28T08:28:35;17.70;99.90
37408;DHT22;24866;50.248;8.252;2023-05-28T08:31:05;17.90;99.90
37408;DHT22;24866;50.248;8.252;2023-05-28T08:33:35;17.90;99.90
37408;DHT22;24866;50.248;8.252;2023-05-28T08:36:05;17.80;1.00
37408;DHT22;24866;50.248;8.252;2023-05-28T08:38:36;18.00;99.90
37408;DHT22;24866;50.248;8.252;2023-05-28T08:41:07;18.20;99.90
37408;DHT22;24866;50.248;8.252;2023-05-28T08:43:37;18.30;1.00
37408;DHT22;24866;50.248;8.252;2023-05-28T08:46:07;18.30;99.90
37408;DHT22;24866;50.248;8.252;2023-05-28T08:48:40;18.50;99.90
37408;DHT22;24866;50.248;8.252;2023-05-28T08:51:11;18.50;99.90
37408;DHT22;24866;50.248;8.252;2023-05-28T08:53:45;18.60;1.00
37408;DHT22;24866;50.248;8.252;2023-05-28T08:56:17;18.60;1.00
37408;DHT22;24866;50.248;8.252;2023-05-28T08:58:47;18.60;99.90
37408;DHT22;24866;50.248;8.252;2023-05-28T09:01:19;18.70;99.90
37408;DHT22;24866;50.248;8.252;2023-05-28T09:03:49;18.60;99.90
37408;DHT22;24866;50.248;8.252;2023-05-28T09:06:20;18.80;99.90
37408;DHT22;24866;50.248;8.252;2023-05-28T09:08:53;19.00;99.90
37408;DHT22;24866;50.248;8.252;2023-05-28T09:11:24;19.00;1.00
37408;DHT22;24866;50.248;8.252;2023-05-28T09:13:55;19.10;1.00
37408;DHT22;24866;50.248;8.252;2023-05-28T09:16:24;19.30;1.00
37408;DHT22;24866;50.248;8.252;2023-05-28T09:19:02;19.50;1.00
37408;DHT22;24866;50.248;8.252;2023-05-28T09:21:32;19.70;99.90
37408;DHT22;24866;50.248;8.252;2023-05-28T09:24:03;19.70;99.90
37408;DHT22;24866;50.248;8.252;2023-05-28T09:26:34;19.90;99.90
37408;DHT22;24866;50.248;8.252;2023-05-28T09:29:11;20.10;99.90
37408;DHT22;24866;50.248;8.252;2023-05-28T09:31:42;20.30;1.00
37408;DHT22;24866;50.248;8.252;2023-05-28T09:34:12;20.30;1.00
37408;DHT22;24866;50.248;8.252;2023-05-28T09:36:42;20.30;1.00
37408;DHT22;24866;50.248;8.252;2023-05-28T09:39:12;20.50;1.00
37408;DHT22;24866;50.248;8.252;2023-05-28T09:41:45;20.60;1.00
37408;DHT22;24866;50.248;8.252;2023-05-28T09:44:19;20.80;1.00
37408;DHT22;24866;50.248;8.252;2023-05-28T09:46:49;20.90;1.00
37408;DHT22;24866;50.248;8.252;2023-05-28T09:49:19;20.80;1.00
37408;DHT22;24866;50.248;8.252;2023-05-28T09:51:51;20.70;1.00
37408;DHT22;24866;50.248;8.252;2023-05-28T09:54:25;21.20;1.00
37408;DHT22;24866;50.248;8.252;2023-05-28T09:57:00;21.20;1.00
37408;DHT22;24866;50.248;8.252;2023-05-28T09:59:32;21.10;99.90
37408;DHT22;24866;50.248;8.252;2023-05-28T10:02:13;21.40;99.90
37408;DHT22;24866;50.248;8.252;2023-05-28T10:04:47;21.40;99.90
37408;DHT22;24866;50.248;8.252;2023-05-28T10:07:17;21.70;99.90
37408;DHT22;24866;50.248;8.252;2023-05-28T10:09:49;21.50;99.90
37408;DHT22;24866;50.248;8.252;2023-05-28T10:12:23;22.00;99.90
37408;DHT22;24866;50.248;8.252;2023-05-28T10:14:56;21.80;99.90
37408;DHT22;24866;50.248;8.252;2023-05-28T10:17:26;21.70;1.00
37408;DHT22;24866;50.248;8.252;2023-05-28T10:19:57;21.90;1.00
37408;DHT22;24866;50.248;8.252;2023-05-28T10:22:29;22.40;68.00
37408;DHT22;24866;50.248;8.252;2023-05-28T10:24:59;22.50;1.00
37408;DHT22;24866;50.248;8.252;2023-05-28T10:27:32;22.40;1.00
37408;DHT22;24866;50.248;8.252;2023-05-28T10:30:03;22.90;1.00
37408;DHT22;24866;50.248;8.252;2023-05-28T10:32:38;22.60;1.00
37408;DHT22;24866;50.248;8.252;2023-05-28T10:35:10;22.50;1.00
37408;DHT22;24866;50.248;8.252;2023-05-28T10:37:40;22.20;1.00
37408;DHT22;24866;50.248;8.252;2023-05-28T10:40:21;22.80;1.00
37408;DHT22;24866;50.248;8.252;2023-05-28T10:42:53;23.10;1.00
37408;DHT22;24866;50.248;8.252;2023-05-28T10:45:34;23.10;1.00
37408;DHT22;24866;50.248;8.252;2023-05-28T10:48:05;22.90;99.90
37408;DHT22;24866;50.248;8.252;2023-05-28T10:50:55;22.80;99.90
37408;DHT22;24866;50.248;8.252;2023-05-28T10:53:25;22.50;99.90
37408;DHT22;24866;50.248;8.252;2023-05-28T10:55:56;22.50;99.90
37408;DHT22;24866;50.248;8.252;2023-05-28T10:58:28;22.80;99.90
37408;DHT22;24866;50.248;8.252;2023-05-28T11:01:05;22.70;99.20
37408;DHT22;24866;50.248;8.252;2023-05-28T11:03:53;22.90;99.90
37408;DHT22;24866;50.248;8.252;2023-05-28T11:06:25;23.50;99.90
37408;DHT22;24866;50.248;8.252;2023-05-28T11:08:56;24.20;99.90
37408;DHT22;24866;50.248;8.252;2023-05-28T11:11:27;24.40;99.90
37408;DHT22;24866;50.248;8.252;2023-05-28T11:14:01;24.70;99.90
37408;DHT22;24866;50.248;8.252;2023-05-28T11:16:31;24.70;96.00
37408;DHT22;24866;50.248;8.252;2023-05-28T11:19:02;24.70;24.10
37408;DHT22;24866;50.248;8.252;2023-05-28T11:21:33;24.00;1.00
37408;DHT22;24866;50.248;8.252;2023-05-28T11:24:04;24.00;1.00
37408;DHT22;24866;50.248;8.252;2023-05-28T11:26:34;24.50;1.00
37408;DHT22;24866;50.248;8.252;2023-05-28T11:29:06;24.50;1.00
37408;DHT22;24866;50.248;8.252;2023-05-28T11:31:39;24.70;1.00
37408;DHT22;24866;50.248;8.252;2023-05-28T11:34:09;24.90;1.00
37408;DHT22;24866;50.248;8.252;2023-05-28T11:36:40;25.40;1.00
37408;DHT22;24866;50.248;8.252;2023-05-28T11:39:10;25.50;1.00
37408;DHT22;24866;50.248;8.252;2023-05-28T11:41:41;25.00;1.00
37408;DHT22;24866;50.248;8.252;2023-05-28T11:44:22;24.90;1.00
37408;DHT22;24866;50.248;8.252;2023-05-28T11:46:54;24.60;99.90
37408;DHT22;24866;50.248;8.252;2023-05-28T11:49:24;24.50;99.90
37408;DHT22;24866;50.248;8.252;2023-05-28T11:51:54;24.90;99.90
37408;DHT22;24866;50.248;8.252;2023-05-28T11:54:24;24.70;99.90
37408;DHT22;24866;50.248;8.252;2023-05-28T11:56:54;24.10;99.90
37408;DHT22;24866;50.248;8.252;2023-05-28T11:59:25;24.70;99.90
37408;DHT22;24866;50.248;8.252;2023-05-28T12:02:09;24.90;99.90
37408;DHT22;24866;50.248;8.252;2023-05-28T12:04:39;24.80;99.90
37408;DHT22;24866;50.248;8.252;2023-05-28T12:07:11;24.90;99.90
37408;DHT22;24866;50.248;8.252;2023-05-28T12:09:42;25.00;99.90
37408;DHT22;24866;50.248;8.252;2023-05-28T12:12:12;25.50;99.90
37408;DHT22;24866;50.248;8.252;2023-05-28T12:14:46;25.90;99.90
37408;DHT22;24866;50.248;8.252;2023-05-28T12:17:16;26.10;99.90
37408;DHT22;24866;50.248;8.252;2023-05-28T12:19:47;25.80;99.90
37408;DHT22;24866;50.248;8.252;2023-05-28T12:22:18;25.90;84.80
37408;DHT22;24866;50.248;8.252;2023-05-28T12:24:49;25.30;1.00
37408;DHT22;24866;50.248;8.252;2023-05-28T12:27:20;25.00;1.00
37408;DHT22;24866;50.248;8.252;2023-05-28T12:29:51;24.90;1.00
37408;DHT22;24866;50.248;8.252;2023-05-28T12:32:21;24.90;1.00
37408;DHT22;24866;50.248;8.252;2023-05-28T12:34:51;24.70;1.00
37408;DHT22;24866;50.248;8.252;2023-05-28T12:37:22;25.10;1.00
37408;DHT22;24866;50.248;8.252;2023-05-28T12:39:52;25.70;1.00
37408;DHT22;24866;50.248;8.252;2023-05-28T12:42:22;26.10;1.00
37408;DHT22;24866;50.248;8.252;2023-05-28T12:44:53;26.00;1.00
37408;DHT22;24866;50.248;8.252;2023-05-28T12:47:23;25.40;1.00
37408;DHT22;24866;50.248;8.252;2023-05-28T12:49:53;24.70;1.00
37408;DHT22;24866;50.248;8.252;2023-05-28T12:52:23;25.60;1.00
37408;DHT22;24866;50.248;8.252;2023-05-28T12:54:53;25.50;1.00
37408;DHT22;24866;50.248;8.252;2023-05-28T12:57:23;25.90;1.00
37408;DHT22;24866;50.248;8.252;2023-05-28T12:59:56;26.20;1.00
37408;DHT22;24866;50.248;8.252;2023-05-28T13:02:26;24.80;99.90
37408;DHT22;24866;50.248;8.252;2023-05-28T13:04:56;24.80;99.90
37408;DHT22;24866;50.248;8.252;2023-05-28T13:07:26;24.80;99.90
37408;DHT22;24866;50.248;8.252;2023-05-28T13:09:56;24.80;99.90
37408;DHT22;24866;50.248;8.252;2023-05-28T13:12:26;25.00;99.90
37408;DHT22;24866;50.248;8.252;2023-05-28T13:14:57;25.40;99.90
37408;DHT22;24866;50.248;8.252;2023-05-28T13:17:27;25.60;99.90
37408;DHT22;24866;50.248;8.252;2023-05-28T13:19:57;24.80;99.90
37408;DHT22;24866;50.248;8.252;2023-05-28T13:22:27;25.10;99.90
37408;DHT22;24866;50.248;8.252;2023-05-28T13:24:57;26.20;99.90
37408;DHT22;24866;50.248;8.252;2023-05-28T13:27:27;25.40;99.90
37408;DHT22;24866;50.248;8.252;2023-05-28T13:30:00;25.80;99.90
37408;DHT22;24866;50.248;8.252;2023-05-28T13:32:31;26.10;99.90
37408;DHT22;24866;50.248;8.252;2023-05-28T13:35:01;25.30;99.90
37408;DHT22;24866;50.248;8.252;2023-05-28T13:37:31;25.20;99.90
37408;DHT22;24866;50.248;8.252;2023-05-28T13:40:02;25.40;99.90
37408;DHT22;24866;50.248;8.252;2023-05-28T13:42:36;25.90;99.90
37408;DHT22;24866;50.248;8.252;2023-05-28T13:45:09;25.80;99.90
37408;DHT22;24866;50.248;8.252;2023-05-28T13:47:39;26.10;99.90
37408;DHT22;24866;50.248;8.252;2023-05-28T13:50:09;26.30;99.90
37408;DHT22;24866;50.248;8.252;2023-05-28T13:52:39;26.10;99.90
37408;DHT22;24866;50.248;8.252;2023-05-28T13:55:09;26.30;99.90
37408;DHT22;24866;50.248;8.252;2023-05-28T13:57:39;25.70;19.60
37408;DHT22;24866;50.248;8.252;2023-05-28T14:00:12;25.40;1.00
37408;DHT22;24866;50.248;8.252;2023-05-28T14:02:42;25.80;1.00
37408;DHT22;24866;50.248;8.252;2023-05-28T14:05:12;25.70;1.00
37408;DHT22;24866;50.248;8.252;2023-05-28T14:07:42;26.50;5.80
37408;DHT22;24866;50.248;8.252;2023-05-28T14:10:11;25.50;1.00
37408;DHT22;24866;50.248;8.252;2023-05-28T14:12:41;26.00;1.00
37408;DHT22;24866;50.248;8.252;2023-05-28T14:15:13;25.90;1.00
37408;DHT22;24866;50.248;8.252;2023-05-28T14:17:44;25.70;1.00
37408;DHT22;24866;50.248;8.252;2023-05-28T14:20:14;25.60;1.00
37408;DHT22;24866;50.248;8.252;2023-05-28T14:22:44;25.70;1.00
37408;DHT22;24866;50.248;8.252;2023-05-28T14:25:13;25.90;1.00
37408;DHT22;24866;50.248;8.252;2023-05-28T14:27:43;25.90;1.00
37408;DHT22;24866;50.248;8.252;2023-05-28T14:30:15;25.40;1.00
37408;DHT22;24866;50.248;8.252;2023-05-28T14:32:45;25.60;1.00
37408;DHT22;24866;50.248;8.252;2023-05-28T14:35:15;25.60;1.00
37408;DHT22;24866;50.248;8.252;2023-05-28T14:37:45;26.20;1.00
37408;DHT22;24866;50.248;8.252;2023-05-28T14:40:15;26.20;1.00
37408;DHT22;24866;50.248;8.252;2023-05-28T14:42:46;26.20;1.00
37408;DHT22;24866;50.248;8.252;2023-05-28T14:45:18;26.50;1.00
37408;DHT22;24866;50.248;8.252;2023-05-28T14:47:48;26.60;1.00
37408;DHT22;24866;50.248;8.252;2023-05-28T14:50:18;26.40;1.00
37408;DHT22;24866;50.248;8.252;2023-05-28T14:52:48;26.40;1.00
37408;DHT22;24866;50.248;8.252;2023-05-28T14:55:20;26.60;1.00
37408;DHT22;24866;50.248;8.252;2023-05-28T14:57:50;26.50;1.00
37408;DHT22;24866;50.248;8.252;2023-05-28T15:00:21;26.00;1.00
37408;DHT22;24866;50.248;8.252;2023-05-28T15:02:51;26.50;1.00
37408;DHT22;24866;50.248;8.252;2023-05-28T15:05:21;26.40;1.00
37408;DHT22;24866;50.248;8.252;2023-05-28T15:07:51;26.20;99.90
37408;DHT22;24866;50.248;8.252;2023-05-28T15:10:21;26.50;99.90
37408;DHT22;24866;50.248;8.252;2023-05-28T15:12:51;26.00;99.90
37408;DHT22;24866;50.248;8.252;2023-05-28T15:15:24;26.20;99.90
37408;DHT22;24866;50.248;8.252;2023-05-28T15:17:54;26.40;99.90
37408;DHT22;24866;50.248;8.252;2023-05-28T15:20:24;26.50;99.90
37408;DHT22;24866;50.248;8.252;2023-05-28T15:22:55;26.00;99.90
37408;DHT22;24866;50.248;8.252;2023-05-28T15:25:25;25.90;99.90
37408;DHT22;24866;50.248;8.252;2023-05-28T15:27:55;26.20;99.90
37408;DHT22;24866;50.248;8.252;2023-05-28T15:30:27;26.50;99.90
37408;DHT22;24866;50.248;8.252;2023-05-28T15:32:59;26.70;99.90
37408;DHT22;24866;50.248;8.252;2023-05-28T15:35:29;26.80;99.90
37408;DHT22;24866;50.248;8.252;2023-05-28T15:38:00;26.60;99.90
37408;DHT22;24866;50.248;8.252;2023-05-28T15:40:30;26.20;99.90
37408;DHT22;24866;50.248;8.252;2023-05-28T15:43:02;26.10;99.90
37408;DHT22;24866;50.248;8.252;2023-05-28T15:45:35;26.10;99.90
37408;DHT22;24866;50.248;8.252;2023-05-28T15:48:05;26.30;99.90
37408;DHT22;24866;50.248;8.252;2023-05-28T15:50:34;26.20;99.90
37408;DHT22;24866;50.248;8.252;2023-05-28T15:53:05;26.10;96.30
37408;DHT22;24866;50.248;8.252;2023-05-28T15:55:35;26.30;97.40
37408;DHT22;24866;50.248;8.252;2023-05-28T15:58:05;26.00;39.70
37408;DHT22;24866;50.248;8.252;2023-05-28T16:00:38;26.10;29.70
37408;DHT22;24866;50.248;8.252;2023-05-28T16:03:12;26.00;5.30